In Rescue
 
Open Full Screen Window  High Contrast Mode
Wind Gusting 00 knots
09
October 19, 2020 8:12 PM EDT
Present Weather: Light Rain
Weather Information
Wind Direction
  350 °
Wind Speed
  09 kt (10 mph)
Wind Gust
  00 kt (0 mph)
Altimeter
30.19 in
Visibility
7 SM
Temperature
07° C
45° F
Dewpoint
06° C
43° F
Humidity
93%
1hr Rain Fall
00.00 in.
24hr Rain Fall
00.04 in.
Sky Condition
Overcast @ 1,800 ft
Broken @ 800 ft
IFR

METAR KONZ 200012Z AUTO 35009KT 7SM -RA BKN008 OVC018 07/06 A3019 RMK AO2 T00670063

FAA Disclaimer: The data displayed is for advisory purposes only and is not to be used for flight planning or operations.